createdAt,value
2023-03-29T00:02:47.393Z,73
2023-03-29T00:07:53.374Z,73.5
2023-03-29T00:12:59.501Z,73
2023-03-29T00:18:05.658Z,70.5
2023-03-29T00:23:11.833Z,74.5
2023-03-29T00:28:17.951Z,76.5
2023-03-29T00:33:24.101Z,77
2023-03-29T00:38:30.246Z,78
2023-03-29T00:43:36.357Z,76.5
2023-03-29T00:48:42.491Z,77.5
2023-03-29T00:53:48.644Z,75.5
2023-03-29T01:04:00.995Z,74.5
2023-03-29T01:09:07.112Z,75.5
2023-03-29T01:14:13.231Z,76
2023-03-29T01:19:19.444Z,78
2023-03-29T01:24:25.554Z,73.5
2023-03-29T01:29:31.667Z,76.5
2023-03-29T01:34:37.834Z,77
2023-03-29T01:39:43.916Z,77.5
2023-03-29T01:44:50.047Z,80
2023-03-29T01:49:56.201Z,81.5
2023-03-29T01:55:02.335Z,80.5
2023-03-29T02:00:08.458Z,82
2023-03-29T02:05:14.589Z,82
2023-03-29T02:10:20.743Z,80.5
2023-03-29T02:15:27.709Z,79.5
2023-03-29T02:20:33.018Z,83.5
2023-03-29T02:25:39.171Z,85.5
2023-03-29T02:30:45.584Z,85.5
2023-03-29T02:35:51.475Z,85.5
2023-03-29T02:40:57.585Z,84
2023-03-29T02:46:03.959Z,77
2023-03-29T02:51:09.894Z,83.5
2023-03-29T02:56:15.997Z,84.5
2023-03-29T03:01:23.512Z,81.5
2023-03-29T03:06:28.306Z,81.5
2023-03-29T03:11:44.700Z,81.5
2023-03-29T03:16:50.858Z,85
2023-03-29T03:21:56.968Z,86.5
2023-03-29T03:27:03.275Z,87
2023-03-29T03:32:09.289Z,87
2023-03-29T03:37:15.370Z,89.5
2023-03-29T03:42:21.639Z,89.5
2023-03-29T03:47:27.676Z,89.5
2023-03-29T03:52:33.808Z,89.5
2023-03-29T03:57:39.923Z,91
2023-03-29T04:02:46.192Z,90
2023-03-29T04:07:52.233Z,92.5
2023-03-29T04:12:58.351Z,94
2023-03-29T04:18:04.548Z,93.5
2023-03-29T04:23:10.773Z,91.5
2023-03-29T04:28:16.792Z,93
2023-03-29T04:33:23.250Z,91.5
2023-03-29T04:38:29.074Z,91
2023-03-29T04:43:35.251Z,90.5
2023-03-29T04:48:41.411Z,91.5
2023-03-29T04:53:47.534Z,92.5
2023-03-29T04:58:53.645Z,90.5
2023-03-29T05:04:00.112Z,93
2023-03-29T05:09:06.004Z,93
2023-03-29T05:14:12.049Z,93.5
2023-03-29T05:19:18.190Z,90
2023-03-29T05:24:24.365Z,89.5
2023-03-29T05:29:40.178Z,89
2023-03-29T05:34:36.655Z,93
2023-03-29T05:39:42.822Z,88.5
2023-03-29T05:44:48.931Z,91.5
2023-03-29T05:49:55.094Z,91.5
2023-03-29T05:55:01.224Z,91.5
2023-03-29T06:00:07.338Z,91.5
2023-03-29T06:05:13.471Z,89.5
2023-03-29T06:10:19.593Z,91
2023-03-29T06:15:25.764Z,91.5
2023-03-29T06:20:31.933Z,91.5
2023-03-29T06:25:38.089Z,91
2023-03-29T06:30:44.330Z,93
2023-03-29T06:35:50.345Z,90.5
2023-03-29T06:40:56.486Z,90
2023-03-29T06:46:02.620Z,89.5
2023-03-29T06:51:09.797Z,88
2023-03-29T06:56:14.918Z,84.5
2023-03-29T07:01:21.217Z,86.5
2023-03-29T07:06:27.176Z,87.5
2023-03-29T07:11:33.493Z,89.5
2023-03-29T07:16:40.793Z,87
2023-03-29T07:21:45.662Z,88.5
2023-03-29T07:27:03.092Z,86
2023-03-29T07:31:57.888Z,83.5
2023-03-29T07:37:04.035Z,85
2023-03-29T07:42:10.192Z,83.5
2023-03-29T07:47:16.268Z,80.5
2023-03-29T07:52:22.415Z,83.5
2023-03-29T07:57:28.633Z,85
2023-03-29T08:02:34.789Z,84.5
2023-03-29T08:07:40.804Z,83
2023-03-29T08:12:46.992Z,83
2023-03-29T08:17:53.193Z,81.5
2023-03-29T08:22:59.848Z,84.5
2023-03-29T08:28:05.410Z,84.5
2023-03-29T08:33:11.623Z,83
2023-03-29T08:38:17.838Z,85
2023-03-29T08:43:24.856Z,80.5
2023-03-29T08:48:30.016Z,80
2023-03-29T08:53:36.093Z,79
2023-03-29T08:58:42.355Z,79
2023-03-29T09:03:48.476Z,75.5
2023-03-29T09:08:54.518Z,77
2023-03-29T09:14:00.719Z,75
2023-03-29T09:19:06.840Z,77.5
2023-03-29T09:24:12.957Z,77.5
2023-03-29T09:29:19.077Z,75.5
2023-03-29T09:34:25.297Z,81.5
2023-03-29T09:39:31.535Z,78.5
2023-03-29T09:44:38.503Z,73.5
2023-03-29T09:49:43.687Z,71.5
2023-03-29T09:54:49.812Z,74.5
2023-03-29T09:59:55.915Z,77
2023-03-29T10:05:02.172Z,76.5
2023-03-29T10:10:08.184Z,76
2023-03-29T10:15:23.209Z,74.5
2023-03-29T10:20:20.521Z,74.5
2023-03-29T10:25:26.653Z,72
2023-03-29T10:30:32.777Z,70.5
2023-03-29T10:35:39.130Z,70.5
2023-03-29T10:45:51.258Z,64
2023-03-29T10:50:57.359Z,62.5
2023-03-29T10:56:03.470Z,67
2023-03-29T11:01:09.684Z,68.5
2023-03-29T11:06:15.758Z,72.5
2023-03-29T11:11:21.912Z,74
2023-03-29T11:16:28.260Z,68.5
2023-03-29T11:21:34.224Z,67.5
2023-03-29T11:26:40.325Z,67.5
2023-03-29T11:31:46.549Z,72
2023-03-29T11:36:52.605Z,68
2023-03-29T11:41:59.062Z,68.5
2023-03-29T11:47:05.023Z,66
2023-03-29T11:52:11.089Z,67
2023-03-29T11:57:17.195Z,65
2023-03-29T12:02:23.355Z,72
2023-03-29T12:07:29.435Z,72.5
2023-03-29T12:12:35.573Z,74.5
2023-03-29T12:17:41.741Z,75.5
2023-03-29T12:22:47.848Z,77
2023-03-29T12:27:54.031Z,76
2023-03-29T12:33:03.252Z,76
2023-03-29T12:38:06.296Z,77.5
2023-03-29T12:43:12.451Z,75.5
2023-03-29T12:48:18.878Z,74.5
2023-03-29T12:53:24.734Z,78
2023-03-29T12:58:30.902Z,76
2023-03-29T13:03:37.066Z,77.5
2023-03-29T13:08:43.136Z,76
2023-03-29T13:13:49.243Z,76.5
2023-03-29T13:18:55.416Z,75
2023-03-29T13:24:01.571Z,76.5
2023-03-29T13:29:07.674Z,82
2023-03-29T13:34:13.840Z,80.5
2023-03-29T13:39:20.005Z,77.5
2023-03-29T13:44:26.119Z,79.5
2023-03-29T13:49:32.266Z,78.5
2023-03-29T13:54:38.641Z,79
2023-03-29T13:59:44.567Z,79
2023-03-29T14:04:50.919Z,78
2023-03-29T14:09:57.086Z,78
2023-03-29T14:15:03.027Z,79
2023-03-29T14:20:09.103Z,80
2023-03-29T14:25:15.306Z,80.5
2023-03-29T14:30:21.648Z,79
2023-03-29T14:35:27.508Z,83
2023-03-29T14:40:33.659Z,83.5
2023-03-29T14:45:39.844Z,82.5
2023-03-29T14:50:45.902Z,82
2023-03-29T14:55:52.132Z,78
2023-03-29T15:00:58.526Z,79
2023-03-29T15:06:04.670Z,77.5
2023-03-29T15:11:10.673Z,79.5
2023-03-29T15:16:16.667Z,79.5
2023-03-29T15:21:22.838Z,80.5
2023-03-29T15:26:28.940Z,82
2023-03-29T15:31:35.234Z,82.5
2023-03-29T15:36:41.232Z,82
2023-03-29T15:41:47.351Z,82.5
2023-03-29T15:46:53.583Z,81.5
2023-03-29T15:51:59.658Z,85
2023-03-29T15:57:05.816Z,82.5
2023-03-29T16:02:11.963Z,81.5
2023-03-29T16:07:18.157Z,82.5
2023-03-29T16:12:24.369Z,83.5
2023-03-29T16:17:30.347Z,84
2023-03-29T16:22:36.519Z,82.5
2023-03-29T16:27:42.652Z,82.5
2023-03-29T16:32:48.791Z,82
2023-03-29T16:37:55.183Z,84.5
2023-03-29T16:43:01.082Z,82.5
2023-03-29T16:48:07.202Z,83.5
2023-03-29T16:53:13.325Z,82.5
2023-03-29T16:58:19.462Z,82
2023-03-29T17:03:25.626Z,82
2023-03-29T17:08:31.761Z,80.5
2023-03-29T17:13:38.155Z,81.5
2023-03-29T17:18:43.987Z,82.5
2023-03-29T17:23:50.191Z,82
2023-03-29T17:28:56.302Z,82.5
2023-03-29T17:34:02.490Z,83
2023-03-29T17:39:08.619Z,80
2023-03-29T17:44:14.719Z,83
2023-03-29T17:49:20.891Z,81.5
2023-03-29T17:54:27.035Z,82.5
2023-03-29T17:59:33.152Z,83
2023-03-29T18:04:39.394Z,80
2023-03-29T18:09:45.423Z,81.5
2023-03-29T18:14:51.553Z,81.5
2023-03-29T18:19:57.734Z,81.5
2023-03-29T18:25:03.822Z,77.5
2023-03-29T18:30:10.215Z,78
2023-03-29T18:35:16.168Z,81
2023-03-29T18:40:22.267Z,78
2023-03-29T18:45:28.438Z,80.5
2023-03-29T18:50:34.552Z,81.5
2023-03-29T18:55:40.851Z,80
2023-03-29T19:00:46.864Z,78.5
2023-03-29T19:05:52.985Z,82
2023-03-29T19:10:59.105Z,81.5
2023-03-29T19:16:05.411Z,81
2023-03-29T19:21:11.537Z,81.5
2023-03-29T19:26:17.517Z,79.5
2023-03-29T19:31:23.677Z,80.5
2023-03-29T19:36:29.862Z,81.5
2023-03-29T19:41:35.968Z,80.5
2023-03-29T19:46:42.109Z,80
2023-03-29T19:51:48.250Z,81
2023-03-29T19:56:55.436Z,82
2023-03-29T20:02:00.563Z,80.5
2023-03-29T20:07:06.623Z,80.5
2023-03-29T20:12:23.048Z,81
2023-03-29T20:17:29.250Z,81.5
2023-03-29T20:22:35.364Z,81.5
2023-03-29T20:27:41.546Z,81
2023-03-29T20:32:47.689Z,80.5
2023-03-29T20:37:53.778Z,79.5
2023-03-29T20:42:59.923Z,79.5
2023-03-29T20:48:06.100Z,79
2023-03-29T20:53:12.189Z,79
2023-03-29T20:58:18.331Z,79
2023-03-29T21:03:24.539Z,80
2023-03-29T21:08:30.622Z,80.5
2023-03-29T21:13:37.354Z,78.5
2023-03-29T21:18:42.890Z,80
2023-03-29T21:23:49.043Z,78
2023-03-29T21:28:55.231Z,76.5
2023-03-29T21:34:01.293Z,75.5
2023-03-29T21:39:07.417Z,75.5
2023-03-29T21:44:13.575Z,76
2023-03-29T21:49:19.744Z,76
2023-03-29T21:54:26.004Z,77
2023-03-29T21:59:31.987Z,79
2023-03-29T22:04:38.160Z,78.5
2023-03-29T22:09:44.298Z,79
2023-03-29T22:14:50.444Z,77
2023-03-29T22:19:56.556Z,78
2023-03-29T22:25:02.745Z,78.5
2023-03-29T22:30:08.849Z,78
2023-03-29T22:35:15.239Z,78
2023-03-29T22:40:21.146Z,78
2023-03-29T22:45:27.304Z,78.5
2023-03-29T22:50:33.432Z,79
2023-03-29T22:55:39.705Z,79
2023-03-29T23:00:45.727Z,78
2023-03-29T23:05:51.823Z,78
2023-03-29T23:10:58.000Z,78.5
2023-03-29T23:16:04.187Z,77.5
2023-03-29T23:21:10.281Z,76
2023-03-29T23:26:16.469Z,76
2023-03-29T23:31:22.609Z,78.5
2023-03-29T23:36:28.705Z,78.5
2023-03-29T23:41:34.863Z,79.5
2023-03-29T23:46:41.080Z,78.5
2023-03-29T23:51:47.381Z,79
2023-03-29T23:56:53.504Z,79.5
